Time;durP1;ratioP1;P1;durP2;ratioP2;P2;SDS_P1;SDS_P2;PMS_P1;PMS_P2;Temp;Humidity;BMP_temperature;BMP_pressure;BME280_temperature;BME280_humidity;BME280_pressure;Samples;Min_cycle;Max_cycle;Signal;HPM_P1;HPM_P2
2022/01/16 00:00:40;;;;;;;;;;;;;;;3.00;51.79;100656.63;3149513;28;19936;-64
2022/01/16 00:04:09;;;;;;;;;;;;;;;2.97;51.67;100668.63;3144533;28;20038;-65
2022/01/16 00:05:40;;;;;;;;;;;;;;;2.98;51.63;100669.50;3149494;28;19968;-65
2022/01/16 00:07:11;;;;;;;;;;;;;;;2.99;51.63;100666.09;3149064;28;19984;-65
2022/01/16 00:08:43;;;;;;;;;;;;;;;2.97;51.60;100665.22;3146321;28;20280;-65
2022/01/16 00:10:17;;;;;;;;;;;;;;;2.96;51.82;100669.50;3149010;28;20151;-64
2022/01/16 00:11:50;;;;;;;;;;;;;;;2.83;51.91;100641.19;3146805;28;19935;-65
2022/01/16 00:13:23;;;;;;;;;;;;;;;2.95;51.79;100666.91;3147133;28;19924;-65
2022/01/16 00:14:55;;;;;;;;;;;;;;;2.95;51.68;100682.34;3149235;28;19924;-65
2022/01/16 00:16:26;;;;;;;;;;;;;;;2.94;51.68;100684.06;3148928;28;20011;-65
2022/01/16 00:18:08;;;;;;;;;;;;;;;2.93;51.71;100700.38;3149634;28;19981;-65
2022/01/16 00:19:41;;;;;;;;;;;;;;;2.93;51.89;100699.53;3149288;28;19924;-65
2022/01/16 00:21:13;;;;;;;;;;;;;;;2.92;51.76;100708.94;3145641;28;19928;-65
2022/01/16 00:22:46;;;;;;;;;;;;;;;2.89;51.59;100714.09;3148056;28;20018;-65
2022/01/16 00:24:18;;;;;;;;;;;;;;;2.88;51.88;100725.25;3148413;28;20239;-65
2022/01/16 00:25:50;;;;;;;;;;;;;;;2.86;51.92;100739.81;3147221;28;20735;-65
2022/01/16 00:27:21;;;;;;;;;;;;;;;2.86;51.82;100757.81;3149494;28;19924;-65
2022/01/16 00:28:54;;;;;;;;;;;;;;;2.84;51.96;100756.97;3147285;28;19924;-65
2022/01/16 00:30:25;;;;;;;;;;;;;;;2.83;51.95;100765.53;3146541;28;20446;-64
2022/01/16 00:31:57;;;;;;;;;;;;;;;2.83;51.98;100790.41;3147868;28;19927;-64
2022/01/16 00:33:29;;;;;;;;;;;;;;;2.81;51.91;100811.00;3147867;28;19924;-64
2022/01/16 00:35:02;;;;;;;;;;;;;;;2.80;52.00;100819.53;3141183;28;19932;-64
2022/01/16 00:36:34;;;;;;;;;;;;;;;2.79;51.97;100786.97;3148882;28;19927;-64
2022/01/16 00:38:05;;;;;;;;;;;;;;;2.78;52.05;100772.41;3146905;28;19924;-64
2022/01/16 00:39:37;;;;;;;;;;;;;;;2.78;52.02;100743.22;3148889;28;19924;-64
2022/01/16 00:41:09;;;;;;;;;;;;;;;2.76;51.92;100704.66;3148047;28;19924;-65
2022/01/16 00:42:41;;;;;;;;;;;;;;;2.76;51.97;100678.09;3149442;28;19928;-64
2022/01/16 00:44:12;;;;;;;;;;;;;;;2.74;52.03;100644.63;3148996;28;19927;-64
2022/01/16 00:45:44;;;;;;;;;;;;;;;2.74;51.98;100599.19;3147088;28;19973;-65
2022/01/16 00:47:16;;;;;;;;;;;;;;;2.73;51.96;100565.75;3148253;28;20168;-65
2022/01/16 00:48:48;;;;;;;;;;;;;;;2.71;52.04;100541.75;3148369;28;19963;-64
2022/01/16 00:50:21;;;;;;;;;;;;;;;2.68;52.06;100540.03;3146853;28;20312;-65
2022/01/16 00:51:52;;;;;;;;;;;;;;;2.69;52.05;100543.47;3144708;28;19930;-65
2022/01/16 00:53:24;;;;;;;;;;;;;;;2.68;52.12;100552.03;3147770;28;19985;-65
2022/01/16 00:54:58;;;;;;;;;;;;;;;2.68;52.06;100570.03;3145080;28;20476;-65
2022/01/16 00:56:30;;;;;;;;;;;;;;;2.66;52.05;100564.91;3148460;28;19975;-65
2022/01/16 00:58:01;;;;;;;;;;;;;;;2.65;52.12;100557.19;3146405;28;19951;-65
2022/01/16 00:59:33;;;;;;;;;;;;;;;2.64;52.09;100573.50;3147522;28;19924;-65
2022/01/16 01:01:05;;;;;;;;;;;;;;;2.62;52.09;100590.63;3148258;28;19988;-65
2022/01/16 01:02:36;;;;;;;;;;;;;;;2.62;52.24;100616.34;3147674;28;20418;-65
2022/01/16 01:04:08;;;;;;;;;;;;;;;2.61;52.09;100636.06;3148524;28;19941;-65
2022/01/16 01:05:41;;;;;;;;;;;;;;;2.61;52.32;100645.50;3148334;28;19928;-65
2022/01/16 01:07:13;;;;;;;;;;;;;;;2.60;52.11;100666.91;3148132;28;19924;-65
2022/01/16 01:08:44;;;;;;;;;;;;;;;2.59;52.11;100678.91;3147536;28;20022;-65
2022/01/16 01:10:16;;;;;;;;;;;;;;;2.58;52.24;100676.34;3147674;28;19924;-64
2022/01/16 01:11:49;;;;;;;;;;;;;;;2.57;52.20;100667.75;3148218;28;20497;-65
2022/01/16 01:13:24;;;;;;;;;;;;;;;2.57;52.14;100661.75;3146502;28;20543;-68
2022/01/16 01:15:07;;;;;;;;;;;;;;;2.56;52.20;100665.19;3147405;28;19928;-65
2022/01/16 01:16:50;;;;;;;;;;;;;;;2.53;52.02;100660.91;3146312;28;20509;-65
2022/01/16 01:18:21;;;;;;;;;;;;;;;2.53;52.21;100660.91;3149290;28;19934;-65
2022/01/16 01:19:53;;;;;;;;;;;;;;;2.52;52.12;100661.75;3148366;28;19954;-65
2022/01/16 01:21:28;;;;;;;;;;;;;;;2.52;52.10;100661.75;3148338;28;19924;-64
2022/01/16 01:23:00;;;;;;;;;;;;;;;2.50;52.13;100661.75;3147829;28;19985;-64
2022/01/16 01:24:34;;;;;;;;;;;;;;;2.50;52.13;100659.19;3145288;28;19928;-65
2022/01/16 01:26:06;;;;;;;;;;;;;;;2.51;52.11;100662.59;3146777;28;20491;-65
2022/01/16 01:27:37;;;;;;;;;;;;;;;2.49;52.15;100662.63;3147948;28;19923;-64
2022/01/16 01:29:09;;;;;;;;;;;;;;;2.50;52.18;100690.03;3145977;28;19953;-64
2022/01/16 01:30:41;;;;;;;;;;;;;;;2.48;52.15;100691.75;3147596;28;20329;-64
2022/01/16 01:32:13;;;;;;;;;;;;;;;2.48;52.12;100683.16;3147495;28;19930;-65
2022/01/16 01:33:45;;;;;;;;;;;;;;;2.46;52.04;100698.59;3144245;28;20965;-65
2022/01/16 01:35:18;;;;;;;;;;;;;;;2.27;52.15;100668.56;3148183;28;20434;-65
2022/01/16 01:36:51;;;;;;;;;;;;;;;2.46;52.06;100692.59;3147661;28;19969;-64
2022/01/16 01:38:23;;;;;;;;;;;;;;;2.45;52.12;100683.16;3141897;28;20375;-64
2022/01/16 01:39:54;;;;;;;;;;;;;;;2.45;52.11;100690.88;3141352;28;19992;-65
2022/01/16 01:41:28;;;;;;;;;;;;;;;2.27;52.10;100658.28;3146892;28;19996;-65
2022/01/16 01:51:00;;;;;;;;;;;;;;;2.43;52.14;100706.31;3143337;28;20580;-65
2022/01/16 01:52:16;;;;;;;;;;;;;;;2.38;52.17;100704.56;3142517;28;19924;-64
2022/01/16 01:53:47;;;;;;;;;;;;;;;2.36;52.20;100712.28;3146749;28;20254;-64
2022/01/16 01:55:19;;;;;;;;;;;;;;;2.33;52.08;100709.69;3142759;28;19924;-64
2022/01/16 01:56:50;;;;;;;;;;;;;;;2.32;52.12;100705.41;3146235;28;19924;-64
2022/01/16 01:58:22;;;;;;;;;;;;;;;2.31;52.04;100698.56;3145910;28;19962;-64
2022/01/16 01:59:54;;;;;;;;;;;;;;;2.31;52.21;100702.81;3143073;28;19925;-64
2022/01/16 02:01:26;;;;;;;;;;;;;;;2.30;52.17;100711.41;3147197;28;19924;-64
2022/01/16 02:04:52;;;;;;;;;;;;;;;2.26;52.19;100706.25;3134271;28;19939;-64
2022/01/16 02:06:24;;;;;;;;;;;;;;;2.26;52.09;100731.09;3147487;28;19924;-64
2022/01/16 02:07:57;;;;;;;;;;;;;;;2.25;52.23;100722.53;3146192;28;19987;-63
2022/01/16 02:09:29;;;;;;;;;;;;;;;2.24;52.15;100730.22;3148035;28;19924;-64
2022/01/16 02:11:02;;;;;;;;;;;;;;;2.24;52.22;100730.22;3147089;28;19928;-64
2022/01/16 02:12:36;;;;;;;;;;;;;;;2.24;52.30;100717.38;3143154;28;20342;-64
2022/01/16 02:14:12;;;;;;;;;;;;;;;2.23;52.30;100725.94;3147583;28;20029;-65
2022/01/16 02:28:45;;;;;;;;;;;;;;;2.11;52.33;100731.03;3147216;28;19924;-65
2022/01/16 02:34:33;;;;;;;;;;;;;;;2.06;52.48;100707.88;3117526;28;20035;-65
2022/01/16 02:36:04;;;;;;;;;;;;;;;2.04;52.43;100705.31;3147500;28;19935;-65
2022/01/16 02:37:35;;;;;;;;;;;;;;;2.02;52.46;100709.59;3146263;28;19928;-64
2022/01/16 02:39:12;;;;;;;;;;;;;;;1.84;52.48;100678.69;3145131;28;19924;-64
2022/01/16 02:40:48;;;;;;;;;;;;;;;2.02;52.58;100708.75;3146731;28;20416;-65
2022/01/16 02:42:26;;;;;;;;;;;;;;;2.01;52.52;100707.00;3145495;28;19924;-65
2022/01/16 02:43:58;;;;;;;;;;;;;;;1.99;52.52;100708.72;3147984;28;19924;-64
2022/01/16 02:45:31;;;;;;;;;;;;;;;1.98;52.57;100709.56;3147429;28;20408;-64
2022/01/16 02:47:02;;;;;;;;;;;;;;;1.97;52.52;100700.13;3141590;28;19934;-65
2022/01/16 02:48:34;;;;;;;;;;;;;;;1.97;52.63;100702.72;3150244;28;19939;-65
2022/01/16 02:50:06;;;;;;;;;;;;;;;1.96;52.61;100703.56;3146237;28;20804;-65
2022/01/16 02:51:37;;;;;;;;;;;;;;;1.94;52.57;100706.13;3143229;28;20435;-65
2022/01/16 02:53:11;;;;;;;;;;;;;;;1.93;52.56;100696.72;3147903;28;19924;-65
2022/01/16 02:54:45;;;;;;;;;;;;;;;1.92;52.63;100689.84;3146579;28;20096;-65
2022/01/16 02:56:18;;;;;;;;;;;;;;;1.92;52.49;100697.53;3139138;28;19928;-66
2022/01/16 02:57:50;;;;;;;;;;;;;;;1.90;52.69;100691.56;3147187;28;20379;-65
2022/01/16 02:59:22;;;;;;;;;;;;;;;1.89;52.77;100705.22;3145658;28;20614;-65
2022/01/16 03:00:54;;;;;;;;;;;;;;;1.88;52.67;100698.38;3147455;28;20011;-65
2022/01/16 03:02:26;;;;;;;;;;;;;;;1.86;52.70;100697.50;3147482;28;20393;-66
2022/01/16 03:03:57;;;;;;;;;;;;;;;1.84;52.74;100688.97;3144527;28;19928;-66
2022/01/16 03:05:29;;;;;;;;;;;;;;;1.84;52.82;100693.25;3144911;28;20344;-66
2022/01/16 03:07:01;;;;;;;;;;;;;;;1.83;52.75;100689.78;3146657;28;19979;-65
2022/01/16 03:08:33;;;;;;;;;;;;;;;1.82;52.84;100677.81;3143653;28;20001;-65
2022/01/16 03:12:07;;;;;;;;;;;;;;;1.79;52.90;100677.81;3132356;28;19938;-65
2022/01/16 03:13:39;;;;;;;;;;;;;;;1.77;53.00;100684.63;3147238;28;19973;-65
2022/01/16 03:15:11;;;;;;;;;;;;;;;1.76;52.94;100688.91;3148612;28;19989;-65
2022/01/16 03:16:44;;;;;;;;;;;;;;;1.75;52.97;100692.34;3148003;28;19935;-65
2022/01/16 03:21:55;;;;;;;;;;;;;;;1.71;53.17;100684.59;3146314;28;19923;-65
2022/01/16 03:23:27;;;;;;;;;;;;;;;1.68;53.20;100684.59;3149157;28;20531;-65
2022/01/16 03:24:58;;;;;;;;;;;;;;;1.70;53.12;100685.47;3149507;28;19923;-66
2022/01/16 03:26:31;;;;;;;;;;;;;;;1.49;53.15;100661.38;3146275;28;19924;-64
2022/01/16 03:28:03;;;;;;;;;;;;;;;1.66;53.30;100699.16;3148213;28;19935;-64
2022/01/16 03:29:35;;;;;;;;;;;;;;;1.64;53.25;100693.13;3146635;28;19989;-64
2022/01/16 03:31:07;;;;;;;;;;;;;;;1.63;53.49;100691.41;3149927;28;19930;-64
2022/01/16 03:32:38;;;;;;;;;;;;;;;1.59;53.40;100699.09;3149305;28;20321;-64
2022/01/16 03:34:10;;;;;;;;;;;;;;;1.59;53.51;100704.22;3147947;28;19993;-64
2022/01/16 03:35:42;;;;;;;;;;;;;;;1.58;53.49;100710.22;3149775;28;19951;-64
2022/01/16 03:37:14;;;;;;;;;;;;;;;1.57;53.43;100700.81;3148827;28;19970;-64
2022/01/16 03:38:45;;;;;;;;;;;;;;;1.56;53.49;100711.91;3144177;28;19925;-64
2022/01/16 03:40:20;;;;;;;;;;;;;;;1.55;53.55;100702.50;3150051;28;19932;-64
2022/01/16 03:41:55;;;;;;;;;;;;;;;1.54;53.42;100707.63;3148946;28;19924;-64
2022/01/16 03:43:27;;;;;;;;;;;;;;;1.53;53.62;100709.31;3145821;28;20023;-64
2022/01/16 03:44:58;;;;;;;;;;;;;;;1.52;53.40;100720.44;3149498;28;19924;-64
2022/01/16 03:46:34;;;;;;;;;;;;;;;1.52;53.50;100722.16;3147426;28;20417;-64
2022/01/16 03:48:06;;;;;;;;;;;;;;;1.50;53.46;100718.72;3147992;28;19924;-64
2022/01/16 03:49:37;;;;;;;;;;;;;;;1.49;53.55;100725.56;3149013;28;20374;-64
2022/01/16 03:51:09;;;;;;;;;;;;;;;1.49;53.48;100724.72;3148311;28;19986;-64
2022/01/16 03:52:41;;;;;;;;;;;;;;;1.48;53.42;100733.22;3149408;28;19924;-64
2022/01/16 03:54:14;;;;;;;;;;;;;;;1.47;53.61;100731.53;3148423;28;19928;-64
2022/01/16 03:55:46;;;;;;;;;;;;;;;1.46;53.56;100733.25;3144185;28;19969;-64
2022/01/16 03:57:19;;;;;;;;;;;;;;;1.45;53.51;100736.66;3149230;28;19924;-64
2022/01/16 03:58:50;;;;;;;;;;;;;;;1.44;53.50;100740.06;3147187;28;20079;-64
2022/01/16 04:00:22;;;;;;;;;;;;;;;1.44;53.59;100736.66;3145546;28;19924;-63
2022/01/16 04:01:54;;;;;;;;;;;;;;;1.43;53.61;100740.06;3149076;28;20153;-64
2022/01/16 04:03:25;;;;;;;;;;;;;;;1.42;53.53;100734.09;3147508;28;19965;-64
2022/01/16 04:04:57;;;;;;;;;;;;;;;1.41;53.60;100744.31;3147128;28;19977;-64
2022/01/16 04:06:29;;;;;;;;;;;;;;;1.40;53.72;100740.91;3148074;28;20463;-64
2022/01/16 04:08:02;;;;;;;;;;;;;;;1.38;53.57;100737.47;3147407;28;20009;-64
2022/01/16 04:09:33;;;;;;;;;;;;;;;1.36;53.66;100752.84;3148390;28;20412;-64
2022/01/16 04:11:05;;;;;;;;;;;;;;;1.34;53.82;100746.84;3149194;28;19928;-64
2022/01/16 04:12:38;;;;;;;;;;;;;;;1.21;53.86;100715.94;3146774;28;20311;-64
2022/01/16 04:14:15;;;;;;;;;;;;;;;1.32;53.73;100751.09;3146660;28;19927;-64
2022/01/16 04:15:46;;;;;;;;;;;;;;;1.31;53.78;100746.81;3148058;28;20481;-64
2022/01/16 04:17:19;;;;;;;;;;;;;;;1.30;53.84;100754.50;3148885;28;20009;-64
2022/01/16 04:18:51;;;;;;;;;;;;;;;1.28;53.88;100751.06;3148796;28;20534;-64
2022/01/16 04:20:22;;;;;;;;;;;;;;;1.26;53.92;100752.75;3147599;28;20477;-64
2022/01/16 04:21:53;;;;;;;;;;;;;;;1.24;54.02;100755.34;3148524;28;19928;-64
2022/01/16 04:23:25;;;;;;;;;;;;;;;1.23;53.92;100751.03;3149130;28;19924;-64
2022/01/16 04:24:56;;;;;;;;;;;;;;;1.22;54.05;100745.91;3147849;28;19924;-64
2022/01/16 04:26:28;;;;;;;;;;;;;;;1.19;54.12;100746.72;3148457;28;20415;-64
2022/01/16 04:28:00;;;;;;;;;;;;;;;1.19;54.18;100758.72;3148365;28;19989;-64
2022/01/16 04:29:31;;;;;;;;;;;;;;;1.17;54.13;100753.53;3147245;28;20095;-64
2022/01/16 04:31:03;;;;;;;;;;;;;;;1.16;54.17;100753.56;3142924;28;19931;-63
2022/01/16 04:32:35;;;;;;;;;;;;;;;1.15;54.07;100752.66;3142620;28;19924;-64
2022/01/16 04:34:07;;;;;;;;;;;;;;;1.13;54.15;100752.66;3146525;28;19938;-63
2022/01/16 04:35:38;;;;;;;;;;;;;;;1.12;54.19;100755.19;3146909;28;19981;-64
2022/01/16 04:37:10;;;;;;;;;;;;;;;1.11;54.37;100758.63;3147699;28;20008;-64
2022/01/16 04:38:45;;;;;;;;;;;;;;;1.11;54.40;100763.75;3146514;28;19961;-64
2022/01/16 04:40:18;;;;;;;;;;;;;;;1.10;54.31;100765.47;3148188;28;20338;-65
2022/01/16 04:43:48;;;;;;;;;;;;;;;1.07;54.30;100757.75;3147023;28;19975;-64
2022/01/16 04:45:19;;;;;;;;;;;;;;;1.04;54.26;100755.16;3148235;28;20007;-64
2022/01/16 04:46:51;;;;;;;;;;;;;;;1.03;54.34;100748.28;3147381;28;19924;-64
2022/01/16 04:48:23;;;;;;;;;;;;;;;1.01;54.27;100755.13;3145127;28;19924;-63
2022/01/16 04:49:54;;;;;;;;;;;;;;;1.01;54.45;100759.41;3148465;28;19923;-64
2022/01/16 04:51:27;;;;;;;;;;;;;;;1.01;54.30;100759.41;3144438;28;20451;-64
2022/01/16 04:52:58;;;;;;;;;;;;;;;0.99;54.34;100748.25;3148337;28;20561;-65
2022/01/16 04:54:31;;;;;;;;;;;;;;;0.99;54.36;100745.69;3146690;28;20378;-64
2022/01/16 04:56:03;;;;;;;;;;;;;;;0.97;54.30;100745.66;3150088;28;19986;-65
2022/01/16 04:57:35;;;;;;;;;;;;;;;0.95;54.54;100737.13;3148197;28;19985;-65
2022/01/16 04:59:08;;;;;;;;;;;;;;;0.94;54.56;100749.91;3147016;28;20142;-66
2022/01/16 05:00:40;;;;;;;;;;;;;;;0.93;54.46;100759.31;3148801;28;19924;-66
2022/01/16 05:02:11;;;;;;;;;;;;;;;0.91;54.70;100759.28;3148007;28;20030;-65
2022/01/16 05:03:43;;;;;;;;;;;;;;;0.89;54.62;100763.56;3147576;28;19935;-66
2022/01/16 05:05:15;;;;;;;;;;;;;;;0.89;54.68;100763.56;3144288;28;20371;-65
2022/01/16 05:06:46;;;;;;;;;;;;;;;0.88;54.57;100766.09;3148915;28;19978;-65
2022/01/16 05:08:18;;;;;;;;;;;;;;;0.87;54.58;100769.53;3147534;28;20016;-66
2022/01/16 05:09:50;;;;;;;;;;;;;;;0.85;54.71;100761.78;3145817;28;20581;-65
2022/01/16 05:11:25;;;;;;;;;;;;;;;0.83;54.86;100758.38;3147298;28;20384;-65
2022/01/16 05:13:14;;;;;;;;;;;;;;;0.82;54.65;100756.63;3145301;28;19936;-66
2022/01/16 05:16:37;;;;;;;;;;;;;;;0.79;54.81;100766.00;3148087;28;20068;-65
2022/01/16 05:18:08;;;;;;;;;;;;;;;0.78;54.73;100760.03;3146086;28;20295;-65
2022/01/16 05:19:40;;;;;;;;;;;;;;;0.76;54.76;100765.97;3147785;28;20059;-65
2022/01/16 05:21:12;;;;;;;;;;;;;;;0.75;54.97;100761.72;3147467;28;19924;-65
2022/01/16 05:22:43;;;;;;;;;;;;;;;0.74;54.82;100757.41;3143384;28;20346;-68
2022/01/16 05:24:15;;;;;;;;;;;;;;;0.72;54.80;100751.44;3146755;28;20001;-66
2022/01/16 05:25:47;;;;;;;;;;;;;;;0.70;55.00;100761.66;3144495;28;19924;-65
2022/01/16 05:27:18;;;;;;;;;;;;;;;0.67;54.86;100767.59;3147387;28;19985;-66
2022/01/16 05:28:49;;;;;;;;;;;;;;;0.65;54.90;100764.19;3146762;28;19924;-66
2022/01/16 05:30:22;;;;;;;;;;;;;;;0.65;54.97;100764.19;3143783;28;20000;-66
2022/01/16 05:31:54;;;;;;;;;;;;;;;0.65;55.00;100765.84;3147768;28;19924;-65
2022/01/16 05:33:25;;;;;;;;;;;;;;;0.62;55.03;100764.16;3147483;28;19924;-65
2022/01/16 05:34:57;;;;;;;;;;;;;;;0.59;55.11;100766.69;3143917;28;19996;-66
2022/01/16 05:36:29;;;;;;;;;;;;;;;0.58;55.17;100766.66;3149141;28;19931;-65
2022/01/16 05:38:00;;;;;;;;;;;;;;;0.56;55.08;100769.22;3147768;28;19924;-65
2022/01/16 05:39:32;;;;;;;;;;;;;;;0.56;55.11;100768.31;3142483;28;19973;-65
2022/01/16 05:41:03;;;;;;;;;;;;;;;0.55;55.24;100769.19;3146606;28;19924;-65
2022/01/16 05:42:35;;;;;;;;;;;;;;;0.54;55.26;100770.88;3147512;28;20793;-65
2022/01/16 05:44:07;;;;;;;;;;;;;;;0.52;55.30;100772.56;3145966;28;20049;-65
2022/01/16 05:45:40;;;;;;;;;;;;;;;0.51;55.32;100778.53;3148277;28;19924;-65
2022/01/16 05:47:12;;;;;;;;;;;;;;;0.50;55.47;100781.94;3145534;28;20657;-65
2022/01/16 05:48:44;;;;;;;;;;;;;;;0.50;55.37;100781.06;3154745;28;20352;-65
2022/01/16 05:50:16;;;;;;;;;;;;;;;0.49;55.31;100775.09;3146734;28;20114;-66
2022/01/16 05:51:47;;;;;;;;;;;;;;;0.48;55.29;100781.06;3142992;28;20465;-65
2022/01/16 05:53:19;;;;;;;;;;;;;;;0.48;55.30;100786.19;3145987;28;19956;-65
2022/01/16 05:54:51;;;;;;;;;;;;;;;0.47;55.46;100781.91;3146495;28;19924;-66
2022/01/16 05:56:22;;;;;;;;;;;;;;;0.48;55.37;100787.91;3141572;28;19992;-65
2022/01/16 05:57:54;;;;;;;;;;;;;;;0.48;55.54;100787.91;3147810;28;19949;-65
2022/01/16 05:59:26;;;;;;;;;;;;;;;0.48;55.40;100788.75;3147085;28;20067;-66
2022/01/16 06:00:59;;;;;;;;;;;;;;;0.47;55.39;100788.72;3144919;28;20118;-63
2022/01/16 06:02:30;;;;;;;;;;;;;;;0.48;55.33;100788.75;3147764;28;19970;-63
2022/01/16 06:04:02;;;;;;;;;;;;;;;0.50;55.51;100794.75;3145151;28;19930;-63
2022/01/16 06:05:33;;;;;;;;;;;;;;;0.51;55.53;100793.91;3147367;28;19977;-63
2022/01/16 06:07:06;;;;;;;;;;;;;;;0.53;55.37;100793.91;3147098;28;19924;-64
2022/01/16 06:08:38;;;;;;;;;;;;;;;0.54;55.29;100790.53;3145284;28;20312;-64
2022/01/16 06:10:10;;;;;;;;;;;;;;;0.56;55.35;100791.41;3143309;28;19967;-64
2022/01/16 06:11:41;;;;;;;;;;;;;;;0.57;55.44;100788.00;3147105;28;19985;-64
2022/01/16 06:13:13;;;;;;;;;;;;;;;0.58;55.40;100794.84;3143606;28;20008;-64
2022/01/16 06:14:45;;;;;;;;;;;;;;;0.60;55.47;100801.72;3146602;28;19924;-64
2022/01/16 06:16:18;;;;;;;;;;;;;;;0.61;55.32;100812.81;3147154;28;20001;-64
2022/01/16 06:17:50;;;;;;;;;;;;;;;0.64;55.29;100808.59;3145833;28;19930;-64
2022/01/16 06:19:22;;;;;;;;;;;;;;;0.66;55.39;100806.91;3147835;28;20458;-64
2022/01/16 06:20:53;;;;;;;;;;;;;;;0.68;55.27;100810.34;3147170;28;20752;-64
2022/01/16 06:22:25;;;;;;;;;;;;;;;0.70;55.47;100812.91;3147133;28;20047;-65
2022/01/16 06:24:03;;;;;;;;;;;;;;;0.71;55.60;100817.22;3147384;28;19927;-65
2022/01/16 06:25:35;;;;;;;;;;;;;;;0.75;55.60;100818.13;3142721;28;19964;-64
2022/01/16 06:27:07;;;;;;;;;;;;;;;0.81;55.36;100825.88;3147318;28;19928;-64
2022/01/16 06:28:38;;;;;;;;;;;;;;;0.95;55.55;100821.75;3147022;28;20176;-64
2022/01/16 06:30:11;;;;;;;;;;;;;;;1.17;55.65;100825.38;3143992;28;19928;-64
2022/01/16 06:31:44;;;;;;;;;;;;;;;1.41;55.69;100835.00;3147493;28;20361;-64
2022/01/16 06:33:15;;;;;;;;;;;;;;;1.65;55.83;100843.75;3146430;28;19961;-63
2022/01/16 06:34:46;;;;;;;;;;;;;;;1.93;55.68;100843.13;3149429;28;20006;-64
2022/01/16 06:36:19;;;;;;;;;;;;;;;2.19;55.49;100848.44;3154662;28;20635;-63
2022/01/16 06:37:51;;;;;;;;;;;;;;;2.45;55.21;100857.97;3146463;28;19924;-62
2022/01/16 06:39:23;;;;;;;;;;;;;;;2.67;54.93;100861.53;3156397;28;20477;-63
2022/01/16 06:40:54;;;;;;;;;;;;;;;2.85;54.65;100855.59;3151797;28;20750;-63
2022/01/16 06:42:26;;;;;;;;;;;;;;;3.03;54.49;100854.78;3146633;28;20388;-63
2022/01/16 06:43:58;;;;;;;;;;;;;;;3.21;54.17;100859.97;3156831;28;19931;-63
2022/01/16 06:45:30;;;;;;;;;;;;;;;3.39;53.61;100861.69;3149076;28;20186;-63
2022/01/16 06:47:03;;;;;;;;;;;;;;;3.55;53.35;100866.03;3147441;28;20340;-62
2022/01/16 06:48:35;;;;;;;;;;;;;;;3.71;53.31;100863.44;3150684;28;19950;-65
2022/01/16 06:50:08;;;;;;;;;;;;;;;3.86;52.90;100864.28;3142581;28;20119;-70
2022/01/16 06:51:39;;;;;;;;;;;;;;;4.00;52.62;100866.88;3148989;28;20857;-63
2022/01/16 06:53:11;;;;;;;;;;;;;;;4.16;52.38;100861.69;3150137;28;20430;-64
2022/01/16 06:54:43;;;;;;;;;;;;;;;4.28;51.92;100861.66;3152977;28;20070;-64
2022/01/16 06:56:15;;;;;;;;;;;;;;;4.41;51.67;100860.78;3154083;28;19936;-62
2022/01/16 06:57:49;;;;;;;;;;;;;;;4.53;51.26;100854.72;3150736;28;19924;-66
2022/01/16 06:59:21;;;;;;;;;;;;;;;4.65;50.84;100848.66;3153957;28;19928;-67
2022/01/16 07:00:52;;;;;;;;;;;;;;;4.74;50.43;100852.03;3150669;28;19924;-66
2022/01/16 07:02:27;;;;;;;;;;;;;;;4.82;50.36;100857.16;3155880;28;20440;-66
2022/01/16 07:03:58;;;;;;;;;;;;;;;4.93;50.03;100862.28;3151988;28;20411;-66
2022/01/16 07:05:30;;;;;;;;;;;;;;;5.01;49.73;100866.53;3152833;28;19930;-66
2022/01/16 07:07:02;;;;;;;;;;;;;;;5.10;49.59;100870.78;3152075;28;19947;-66
2022/01/16 07:08:33;;;;;;;;;;;;;;;5.18;49.22;100876.78;3154602;28;19924;-66
2022/01/16 07:10:05;;;;;;;;;;;;;;;5.27;48.94;100880.19;3154679;28;19943;-66
2022/01/16 07:11:37;;;;;;;;;;;;;;;5.33;48.85;100893.06;3153302;28;20317;-67
2022/01/16 07:13:08;;;;;;;;;;;;;;;5.41;48.85;100888.66;3152445;28;19920;-66
2022/01/16 07:14:40;;;;;;;;;;;;;;;5.52;48.71;100891.19;3149954;28;19947;-67
2022/01/16 07:16:12;;;;;;;;;;;;;;;5.61;48.42;100894.56;3154400;28;20345;-66
2022/01/16 07:17:44;;;;;;;;;;;;;;;5.70;48.38;100899.66;3150570;28;19924;-66
2022/01/16 07:19:16;;;;;;;;;;;;;;;5.81;48.03;100901.31;3151627;28;19924;-66
2022/01/16 07:20:48;;;;;;;;;;;;;;;5.89;47.97;100900.38;3154304;28;19924;-66
2022/01/16 07:22:21;;;;;;;;;;;;;;;5.94;47.86;100900.38;3157558;28;19946;-66
2022/01/16 07:23:53;;;;;;;;;;;;;;;5.99;47.68;100903.78;3153274;28;19956;-66
2022/01/16 07:25:24;;;;;;;;;;;;;;;6.03;47.62;100892.53;3155419;28;19934;-66
2022/01/16 07:26:58;;;;;;;;;;;;;;;6.07;47.41;100889.06;3155008;28;19931;-66
2022/01/16 07:28:29;;;;;;;;;;;;;;;6.11;47.34;100889.88;3158587;28;19943;-66
2022/01/16 07:30:00;;;;;;;;;;;;;;;6.16;47.29;100890.69;3151417;28;20001;-66
2022/01/16 07:31:31;;;;;;;;;;;;;;;6.20;47.24;100887.19;3151306;28;19924;-66
2022/01/16 07:33:05;;;;;;;;;;;;;;;6.25;47.30;100889.75;3156098;28;19973;-66
2022/01/16 07:34:36;;;;;;;;;;;;;;;6.27;47.07;100888.88;3159190;28;20271;-65
2022/01/16 07:36:08;;;;;;;;;;;;;;;6.32;46.97;100891.41;3154540;28;20030;-66
2022/01/16 07:37:39;;;;;;;;;;;;;;;6.35;47.14;100899.13;3156090;28;19931;-65
2022/01/16 07:39:11;;;;;;;;;;;;;;;6.37;47.01;100895.66;3154397;28;19978;-65
2022/01/16 07:40:42;;;;;;;;;;;;;;;6.41;47.21;100896.47;3165371;28;20366;-65
2022/01/16 07:42:14;;;;;;;;;;;;;;;6.44;46.97;100900.75;3152178;28;19920;-66
2022/01/16 07:43:46;;;;;;;;;;;;;;;6.44;46.95;100904.19;3151581;28;19924;-63
2022/01/16 07:45:18;;;;;;;;;;;;;;;6.48;46.92;100905.03;3151333;28;20404;-66
2022/01/16 07:46:50;;;;;;;;;;;;;;;6.50;47.22;100904.13;3157342;28;20012;-63
2022/01/16 07:48:23;;;;;;;;;;;;;;;6.56;46.94;100911.81;3153265;28;19924;-62
2022/01/16 07:49:54;;;;;;;;;;;;;;;6.59;46.95;100909.19;3150595;28;20508;-63
2022/01/16 07:51:26;;;;;;;;;;;;;;;6.62;46.72;100908.31;3151417;28;20001;-63
2022/01/16 07:52:58;;;;;;;;;;;;;;;6.59;46.71;100909.19;3155223;28;19932;-63
2022/01/16 07:54:29;;;;;;;;;;;;;;;6.56;46.88;100906.66;3157673;28;19928;-63
2022/01/16 07:56:01;;;;;;;;;;;;;;;6.53;46.91;100911.84;3151667;28;19924;-64
2022/01/16 07:57:33;;;;;;;;;;;;;;;6.51;46.93;100910.19;3149481;28;19919;-63
2022/01/16 07:59:04;;;;;;;;;;;;;;;6.51;47.03;100918.81;3155223;28;19927;-63
2022/01/16 08:00:36;;;;;;;;;;;;;;;6.53;47.22;100917.03;3154341;28;19924;-63
2022/01/16 08:02:08;;;;;;;;;;;;;;;6.59;46.94;100914.38;3151998;28;19928;-64
2022/01/16 08:03:41;;;;;;;;;;;;;;;6.60;47.04;100918.69;3155569;28;19931;-63
2022/01/16 08:05:12;;;;;;;;;;;;;;;6.64;46.92;100909.16;3157576;28;19924;-62
2022/01/16 08:06:44;;;;;;;;;;;;;;;6.66;46.81;100912.59;3158177;28;20002;-64
2022/01/16 08:08:15;;;;;;;;;;;;;;;6.72;46.86;100907.34;3157733;28;19931;-64
2022/01/16 08:09:47;;;;;;;;;;;;;;;6.78;47.03;100904.69;3155660;28;20625;-63
2022/01/16 08:11:19;;;;;;;;;;;;;;;6.83;46.94;100899.44;3160885;28;19986;-61
2022/01/16 08:12:50;;;;;;;;;;;;;;;6.88;46.75;100897.66;3157219;28;19969;-62
2022/01/16 08:14:22;;;;;;;;;;;;;;;6.90;46.94;100890.75;3167464;28;19983;-61
2022/01/16 08:15:53;;;;;;;;;;;;;;;6.91;46.69;100881.22;3160146;28;19924;-62
2022/01/16 08:17:25;;;;;;;;;;;;;;;6.89;46.64;100878.69;3155492;28;19928;-62
2022/01/16 08:18:58;;;;;;;;;;;;;;;6.91;46.81;100876.06;3158977;28;20010;-62
2022/01/16 08:20:29;;;;;;;;;;;;;;;6.96;46.61;100884.63;3156182;28;19923;-61
2022/01/16 08:22:01;;;;;;;;;;;;;;;7.01;46.46;100882.81;3158155;28;19920;-62
2022/01/16 08:23:33;;;;;;;;;;;;;;;7.06;46.53;100879.28;3157481;28;19924;-61
2022/01/16 08:25:05;;;;;;;;;;;;;;;7.12;46.54;100886.13;3157428;28;19919;-61
2022/01/16 08:26:37;;;;;;;;;;;;;;;7.12;46.21;100880.94;3153339;28;19946;-61
2022/01/16 08:28:09;;;;;;;;;;;;;;;7.11;46.14;100893.94;3158133;28;19953;-61
2022/01/16 08:29:40;;;;;;;;;;;;;;;6.93;46.08;100872.56;3156452;28;19973;-61
2022/01/16 08:31:12;;;;;;;;;;;;;;;7.03;45.95;100887.09;3155319;28;19946;-61
2022/01/16 08:32:44;;;;;;;;;;;;;;;7.01;46.15;100888.00;3158157;28;19924;-61
2022/01/16 08:34:17;;;;;;;;;;;;;;;6.98;46.21;100877.66;3155726;28;19971;-61
2022/01/16 08:35:49;;;;;;;;;;;;;;;6.97;46.17;100875.97;3162500;28;20341;-61
2022/01/16 08:37:20;;;;;;;;;;;;;;;6.96;46.26;100882.03;3157479;28;19924;-62
2022/01/16 08:38:53;;;;;;;;;;;;;;;6.94;46.03;100884.63;3152550;28;19924;-64